San Francisco, CA

8:05 PM PDT on September 01, 2014 (GMT -0700)
SOMA - Near Van Ness | Change Station
CLOSE
Current Station
Personal Weather Station
Location: San Francisco, CA
Elevation: 49 ft
Nearby Weather Stations

Elev 49 ft 37.77 °N, 122.42 °W | Updated 34 seconds ago

Clear
Clear
65.5 °F
Feels Like 65.5 °F
N
2.0
Wind Variable Wind from SW
Gusts 0.0 mph

Today
High -- | Low -- °F
--% Chance of Precip.
Yesterday
High -- | Low -- °F
Precip. -- in
6:39 AM 7:38 PM
Waxing Crescent, 47% visible
Pressure 29.77 in
Visibility 10.0 miles
Clouds Few 1000 ft
Dew Point 58 °F
Humidity 78%
Rainfall 0.00 in
Snow Depth Not available.
UV 0 out of 12
Pollen 8.40 out of 12
PM2.5 Good
Flu Activity Not available.
METAR KSFO 020256Z 30013KT 10SM FEW010 18/15 A2977 RMK AO2 SLP079 T01830150 55000 $

More Conditions Fewer Conditions

Pressure 29.77 in
Visibility 10.0 miles
Clouds Few 1000 ft
Dew Point 58 °F
Humidity 78%
Rainfall 0.00 in
Snow Depth Not available.
UV 0 out of 12
Pollen 8.40 out of 12
PM2.5 Good
Flu Activity Not available.
METAR KSFO 020256Z 30013KT 10SM FEW010 18/15 A2977 RMK AO2 SLP079 T01830150 55000 $

More Conditions Fewer Conditions

10-Day Weather Forecast

Almanac

Astronomy

Sep. 01, 2014 Rise Set
Actual Time 6:39 AM PDT 7:38 PM PDT
Civil Twilight 6:12 AM PDT 8:05 PM PDT
Nautical Twilight 5:41 AM PDT 8:37 PM PDT
Astronomical Twilight 5:07 AM PDT 9:10 PM PDT
Moon 1:23 PM PDT (9/1) 11:51 PM PDT (9/1)
Length of Visible Light 13h 52m
Length of Day
12h 58m
Tomorrow will be 2m 19s shorter.
Waxing Crescent, 47% of the Moon is Illuminated
Today
Waxing Crescent
Sep 2
First Quarter
Sep 8
Full
Sep 15
Last Quarter
Sep 24
New

Today's Extremes

State Highs State Lows

Community

WunderPhotos

Upload Photos

1,749,537 photos uploaded!

WunderBlogs® & News

Nearby

Air Quality

  Air Quality AQ Index Pollutant
Yesterday Good
PM2.5
Yesterday Good
OZONE
Current Good
PM2.5
Monday Good
PM2.5
Tuesday Good
PM2.5
Wednesday Good
PM2.5
Thursday Good
PM2.5
Friday Good
PM2.5

Snow Depth

Station Depth Elevation
Rubicon #2 0 in 7500 ft
CSS Lab 0 in 6900 ft
Leavitt Meadows 0 in 7200 ft
Summit Meadow 0 in 9122 ft
Adin Mountain 1 in 6200 ft

Earthquake Activity

City Distance Mag. Time & Date
Yountville, California 40 miles 2.6 1:15 PM PDT
2014-09-01
Gilroy, California 75 miles 3.5 9:10 AM PDT
2014-09-01
Green Valley, California 35 miles 2.5 6:37 AM PDT
2014-08-31
Napa, California 31 miles 3.2 1:56 AM PDT
2014-08-31
Minimum magnitude displayed is 2.5.

Coastal Water Temperatures

Place Temperature
No Stations Reporting

Nearby Weather Stations